createdAt,value
2019-03-03T00:00:00.053Z,74.05
2019-03-03T00:04:05.410Z,74.03
2019-03-03T00:08:10.240Z,74.17
2019-03-03T00:12:14.461Z,75.08
2019-03-03T00:16:19.874Z,74.14
2019-03-03T00:20:24.396Z,74.27
2019-03-03T00:24:28.818Z,74.21
2019-03-03T00:28:33.008Z,74.45
2019-03-03T00:32:37.247Z,74.34
2019-03-03T00:36:59.314Z,74.54
2019-03-03T00:41:21.416Z,74.49
2019-03-03T00:45:38.784Z,74.49
2019-03-03T00:49:59.800Z,74.46
2019-03-03T00:54:35.147Z,74.24
2019-03-03T00:58:59.460Z,74.32
2019-03-03T01:03:09.546Z,74.35
2019-03-03T01:07:32.702Z,74.54
2019-03-03T01:12:04.855Z,74.69
2019-03-03T01:16:18.410Z,74.70
2019-03-03T01:20:28.208Z,74.59
2019-03-03T01:24:57.638Z,74.55
2019-03-03T01:29:01.880Z,74.45
2019-03-03T01:33:06.096Z,74.39
2019-03-03T01:37:10.314Z,74.34
2019-03-03T01:41:14.548Z,74.24
2019-03-03T01:45:18.730Z,74.18
2019-03-03T01:49:22.942Z,74.30
2019-03-03T01:53:27.162Z,74.49
2019-03-03T01:57:31.422Z,74.62
2019-03-03T02:01:36.124Z,74.59
2019-03-03T02:05:40.375Z,74.60
2019-03-03T02:09:44.624Z,74.65
2019-03-03T02:13:48.967Z,74.65
2019-03-03T02:17:53.433Z,74.54
2019-03-03T02:21:57.992Z,74.53
2019-03-03T02:26:02.977Z,74.54
2019-03-03T02:30:12.424Z,74.42
2019-03-03T02:34:16.720Z,74.58
2019-03-03T02:38:20.918Z,74.55
2019-03-03T02:42:25.148Z,74.64
2019-03-03T02:46:29.338Z,74.70
2019-03-03T02:50:33.534Z,74.72
2019-03-03T02:54:37.889Z,74.53
2019-03-03T02:58:42.139Z,74.50
2019-03-03T03:02:50.751Z,74.79
2019-03-03T03:11:23.717Z,74.39
2019-03-03T03:15:46.035Z,74.26
2019-03-03T03:19:59.595Z,74.29
2019-03-03T03:24:28.943Z,74.01
2019-03-03T03:28:58.034Z,73.83
2019-03-03T03:33:18.703Z,73.91
2019-03-03T03:37:32.204Z,73.84
2019-03-03T03:41:44.845Z,73.86
2019-03-03T03:46:06.751Z,73.82
2019-03-03T03:50:23.608Z,73.79
2019-03-03T03:54:45.723Z,73.74
2019-03-03T03:59:07.797Z,73.94
2019-03-03T04:03:29.749Z,73.97
2019-03-03T04:08:02.133Z,73.98
2019-03-03T04:12:24.466Z,73.99
2019-03-03T04:16:34.740Z,74.35
2019-03-03T04:21:06.840Z,74.53
2019-03-03T04:25:18.464Z,74.73
2019-03-03T04:29:32.017Z,74.29
2019-03-03T04:33:47.776Z,73.67
2019-03-03T04:38:05.144Z,72.99
2019-03-03T04:42:19.164Z,72.51
2019-03-03T04:46:41.299Z,72.08
2019-03-03T04:50:57.955Z,71.54
2019-03-03T04:55:19.937Z,71.21
2019-03-03T04:59:43.029Z,70.85
2019-03-03T05:04:00.458Z,70.37
2019-03-03T05:08:21.977Z,70.20
2019-03-03T05:12:57.015Z,70.06
2019-03-03T05:17:08.738Z,69.89
2019-03-03T05:21:13.098Z,69.90
2019-03-03T05:25:17.317Z,69.98
2019-03-03T05:29:21.555Z,70.03
2019-03-03T05:37:29.077Z,70.11
2019-03-03T05:41:33.310Z,70.09
2019-03-03T05:45:37.581Z,70.20
2019-03-03T05:49:41.780Z,70.21
2019-03-03T05:53:46.001Z,70.17
2019-03-03T05:57:50.592Z,70.18
2019-03-03T06:01:54.784Z,70.17
2019-03-03T06:05:59.025Z,70.19
2019-03-03T06:10:03.252Z,70.18
2019-03-03T06:14:07.906Z,70.22
2019-03-03T06:18:12.542Z,70.44
2019-03-03T06:22:16.768Z,70.35
2019-03-03T06:26:20.997Z,70.50
2019-03-03T06:30:25.643Z,70.52
2019-03-03T06:34:29.873Z,70.58
2019-03-03T06:38:34.108Z,70.71
2019-03-03T06:42:38.747Z,70.76
2019-03-03T06:46:42.928Z,70.67
2019-03-03T06:50:47.157Z,70.72
2019-03-03T06:54:51.362Z,70.55
2019-03-03T06:58:55.642Z,70.60
2019-03-03T07:02:59.829Z,70.62
2019-03-03T07:07:04.417Z,70.48
2019-03-03T07:11:10.121Z,70.34
2019-03-03T07:15:15.916Z,70.28
2019-03-03T07:19:20.161Z,70.43
2019-03-03T07:23:24.366Z,70.38
2019-03-03T07:27:28.597Z,70.58
2019-03-03T07:31:32.776Z,70.57
2019-03-03T07:35:36.979Z,70.18
2019-03-03T07:39:41.211Z,70.03
2019-03-03T07:43:45.450Z,69.86
2019-03-03T07:47:49.624Z,69.84
2019-03-03T07:51:53.884Z,69.52
2019-03-03T07:55:58.175Z,69.25
2019-03-03T08:00:02.370Z,68.98
2019-03-03T08:04:06.603Z,68.85
2019-03-03T08:08:10.844Z,68.68
2019-03-03T08:12:15.080Z,68.53
2019-03-03T08:16:19.324Z,68.29
2019-03-03T08:20:23.678Z,67.98
2019-03-03T08:24:27.876Z,65.62
2019-03-03T08:28:32.189Z,66.08
2019-03-03T08:32:36.588Z,64.92
2019-03-03T08:36:40.825Z,64.14
2019-03-03T08:40:45.203Z,63.67
2019-03-03T08:45:08.401Z,63.13
2019-03-03T08:49:40.900Z,63.41
2019-03-03T08:53:53.525Z,62.81
2019-03-03T08:58:15.139Z,62.65
2019-03-03T09:02:38.508Z,61.96
2019-03-03T09:06:59.580Z,61.62
2019-03-03T09:11:21.922Z,60.97
2019-03-03T09:16:03.530Z,60.26
2019-03-03T09:20:30.834Z,60.27
2019-03-03T09:25:03.273Z,60.48
2019-03-03T09:29:26.935Z,60.44
2019-03-03T09:33:42.889Z,60.42
2019-03-03T09:38:00.439Z,60.74
2019-03-03T09:42:22.497Z,60.29
2019-03-03T09:46:33.354Z,60.68
2019-03-03T09:50:54.025Z,59.72
2019-03-03T09:55:32.352Z,59.20
2019-03-03T10:00:10.621Z,59.20
2019-03-03T10:04:46.022Z,60.86
2019-03-03T10:09:24.419Z,60.86
2019-03-03T10:13:38.179Z,60.39
2019-03-03T10:18:08.056Z,60.53
2019-03-03T10:22:34.083Z,60.57
2019-03-03T10:27:03.635Z,60.74
2019-03-03T10:31:30.019Z,60.74
2019-03-03T10:36:03.484Z,59.74
2019-03-03T10:40:34.591Z,59.74
2019-03-03T10:45:01.078Z,59.55
2019-03-03T10:49:15.133Z,59.29
2019-03-03T10:53:29.083Z,58.85
2019-03-03T10:58:03.939Z,57.89
2019-03-03T11:02:20.395Z,56.73
2019-03-03T11:06:54.751Z,56.87
2019-03-03T11:11:13.860Z,55.96
2019-03-03T11:15:40.336Z,56.02
2019-03-03T11:20:03.315Z,55.94
2019-03-03T11:24:22.465Z,56.38
2019-03-03T11:28:49.716Z,56.27
2019-03-03T11:33:16.318Z,56.58
2019-03-03T11:37:42.574Z,56.02
2019-03-03T11:42:24.415Z,55.98
2019-03-03T11:46:38.841Z,56.19
2019-03-03T11:50:57.633Z,56.26
2019-03-03T11:55:19.886Z,56.19
2019-03-03T12:03:59.126Z,54.24
2019-03-03T12:08:28.399Z,54.10
2019-03-03T12:12:45.033Z,54.73
2019-03-03T12:17:07.573Z,53.78
2019-03-03T12:21:21.661Z,52.82
2019-03-03T12:25:54.047Z,52.38
2019-03-03T12:30:20.448Z,53.04
2019-03-03T12:34:43.922Z,52.22
2019-03-03T12:39:10.002Z,52.04
2019-03-03T12:43:42.552Z,51.35
2019-03-03T12:48:05.876Z,50.93
2019-03-03T12:52:20.265Z,51.35
2019-03-03T12:56:40.497Z,50.93
2019-03-03T13:01:02.880Z,51.36
2019-03-03T13:05:23.229Z,50.64
2019-03-03T13:09:40.884Z,50.49
2019-03-03T13:13:55.386Z,49.86
2019-03-03T13:18:25.824Z,49.27
2019-03-03T13:22:42.024Z,49.42
2019-03-03T13:27:05.273Z,49.20
2019-03-03T13:31:18.857Z,48.88
2019-03-03T13:35:53.190Z,49.15
2019-03-03T13:40:29.978Z,48.50
2019-03-03T13:44:34.760Z,48.29
2019-03-03T13:48:39.952Z,48.86
2019-03-03T13:52:45.730Z,48.70
2019-03-03T13:56:50.833Z,48.50
2019-03-03T14:00:55.775Z,48.22
2019-03-03T14:05:00.786Z,48.58
2019-03-03T14:09:07.829Z,48.74
2019-03-03T14:13:13.238Z,48.05
2019-03-03T14:17:18.486Z,48.01
2019-03-03T14:21:23.129Z,47.58
2019-03-03T14:25:28.613Z,47.62
2019-03-03T14:29:33.507Z,47.99
2019-03-03T14:33:38.596Z,47.70
2019-03-03T14:37:43.354Z,47.45
2019-03-03T14:41:47.667Z,47.85
2019-03-03T14:45:51.902Z,47.41
2019-03-03T14:49:56.249Z,47.79
2019-03-03T14:54:00.511Z,47.93
2019-03-03T14:58:04.792Z,47.35
2019-03-03T15:02:09.542Z,47.78
2019-03-03T15:06:13.856Z,47.39
2019-03-03T15:10:18.717Z,47.22
2019-03-03T15:14:22.946Z,47.37
2019-03-03T15:18:27.221Z,46.48
2019-03-03T15:22:31.437Z,47.20
2019-03-03T15:26:35.697Z,47.31
2019-03-03T15:30:40.012Z,47.32
2019-03-03T15:34:44.233Z,46.89
2019-03-03T15:38:48.477Z,46.25
2019-03-03T15:42:52.944Z,46.33
2019-03-03T15:46:57.182Z,45.50
2019-03-03T15:51:01.446Z,46.15
2019-03-03T15:55:06.790Z,45.72
2019-03-03T15:59:10.975Z,46.13
2019-03-03T16:03:15.259Z,45.94
2019-03-03T16:07:19.471Z,45.92
2019-03-03T16:11:23.804Z,45.86
2019-03-03T16:15:28.181Z,45.73
2019-03-03T16:19:32.559Z,46.02
2019-03-03T16:23:36.925Z,46.08
2019-03-03T16:27:42.160Z,46.18
2019-03-03T16:31:46.669Z,46.34
2019-03-03T16:35:51.207Z,46.24
2019-03-03T16:39:55.454Z,46.12
2019-03-03T16:44:01.041Z,46.19
2019-03-03T16:48:05.367Z,46.20
2019-03-03T16:52:09.879Z,45.95
2019-03-03T16:56:14.445Z,46.24
2019-03-03T17:00:20.183Z,46.93
2019-03-03T17:04:24.457Z,47.79
2019-03-03T17:08:28.721Z,48.69
2019-03-03T17:12:33.066Z,49.57
2019-03-03T17:16:37.357Z,49.94
2019-03-03T17:20:41.962Z,50.70
2019-03-03T17:24:46.204Z,51.76
2019-03-03T17:28:51.005Z,51.81
2019-03-03T17:32:55.658Z,51.87
2019-03-03T17:36:59.896Z,52.12
2019-03-03T17:41:04.326Z,52.58
2019-03-03T17:45:11.559Z,52.56
2019-03-03T17:49:15.780Z,53.02
2019-03-03T17:53:20.366Z,53.66
2019-03-03T17:57:25.235Z,53.33
2019-03-03T18:01:29.510Z,54.81
2019-03-03T18:05:33.859Z,53.90
2019-03-03T18:09:38.158Z,54.00
2019-03-03T18:13:42.948Z,54.18
2019-03-03T18:17:47.283Z,54.25
2019-03-03T18:21:51.545Z,54.38
2019-03-03T18:25:55.800Z,54.43
2019-03-03T18:30:00.021Z,54.55
2019-03-03T18:34:04.479Z,54.61
2019-03-03T18:38:08.710Z,54.75
2019-03-03T18:42:12.972Z,54.91
2019-03-03T18:46:17.530Z,55.05
2019-03-03T18:50:21.879Z,55.29
2019-03-03T18:54:26.146Z,55.53
2019-03-03T18:58:30.371Z,55.75
2019-03-03T19:02:34.613Z,56.63
2019-03-03T19:06:38.909Z,56.63
2019-03-03T19:10:43.144Z,56.53
2019-03-03T19:14:47.484Z,56.73
2019-03-03T19:18:53.067Z,56.86
2019-03-03T19:22:57.529Z,56.96
2019-03-03T19:27:02.894Z,57.08
2019-03-03T19:31:07.706Z,57.15
2019-03-03T19:35:12.982Z,57.26
2019-03-03T19:39:17.518Z,57.38
2019-03-03T19:43:21.749Z,57.52
2019-03-03T19:47:26.597Z,57.83
2019-03-03T19:51:31.223Z,57.91
2019-03-03T19:55:35.524Z,58.03
2019-03-03T19:59:40.612Z,58.18
2019-03-03T20:03:44.927Z,58.18
2019-03-03T20:07:49.118Z,58.22
2019-03-03T20:11:53.405Z,58.44
2019-03-03T20:15:57.639Z,58.58
2019-03-03T20:20:01.922Z,58.88
2019-03-03T20:24:07.357Z,59.63
2019-03-03T20:28:12.657Z,59.95
2019-03-03T20:32:17.949Z,60.29
2019-03-03T20:36:22.380Z,60.29
2019-03-03T20:40:27.932Z,60.16
2019-03-03T20:44:39.418Z,60.17
2019-03-03T20:48:46.449Z,60.17
2019-03-03T20:52:52.178Z,60.99
2019-03-03T20:56:57.992Z,60.99
2019-03-03T21:01:05.899Z,61.16
2019-03-03T21:05:11.682Z,61.53
2019-03-03T21:09:16.415Z,61.83
2019-03-03T21:13:20.676Z,62.25
2019-03-03T21:17:25.651Z,63.42
2019-03-03T21:21:30.236Z,63.17
2019-03-03T21:25:35.164Z,63.05
2019-03-03T21:29:39.955Z,63.17
2019-03-03T21:33:44.974Z,63.37
2019-03-03T21:37:49.872Z,63.47
2019-03-03T21:41:57.501Z,63.63
2019-03-03T21:46:02.361Z,63.67
2019-03-03T21:50:10.557Z,64.11
2019-03-03T21:54:18.195Z,64.24
2019-03-03T21:58:22.361Z,64.06
2019-03-03T22:02:26.916Z,64.70
2019-03-03T22:06:32.826Z,64.43
2019-03-03T22:10:42.318Z,64.43
2019-03-03T22:14:46.596Z,64.40
2019-03-03T22:18:51.215Z,64.50
2019-03-03T22:22:58.273Z,64.54
2019-03-03T22:27:03.043Z,64.32
2019-03-03T22:31:08.191Z,64.40
2019-03-03T22:35:14.545Z,64.45
2019-03-03T22:39:18.712Z,64.46
2019-03-03T22:43:24.339Z,64.55
2019-03-03T22:47:27.173Z,64.19
2019-03-03T22:51:30.443Z,64.30
2019-03-03T22:55:40.517Z,64.40
2019-03-03T22:59:45.000Z,64.53
2019-03-03T23:04:09.548Z,64.84
2019-03-03T23:08:28.469Z,66.10
2019-03-03T23:12:45.113Z,65.60
2019-03-03T23:17:44.352Z,65.83
2019-03-03T23:22:22.704Z,65.87
2019-03-03T23:26:28.789Z,66.09
2019-03-03T23:30:34.091Z,66.20
2019-03-03T23:34:40.258Z,66.21
2019-03-03T23:38:44.452Z,66.42
2019-03-03T23:42:48.696Z,66.49
2019-03-03T23:46:52.926Z,67.03
2019-03-03T23:50:57.161Z,66.77
2019-03-03T23:55:01.599Z,66.79
2019-03-03T23:59:08.991Z,67.04
